Time,TemperatureF,DewpointF,PressureIn,WindDirection,WindDirectionDegrees,WindSpeedMPH,WindSpeedGustMPH,Humidity,HourlyPrecipIn,Conditions,Clouds,dailyrainin,SoftwareType,DateUTC
2013-10-13 00:12:00,38.0,34.0,-100.00,WNW,299,0.0,0.0,86,0.00,,,0.01,,2013-10-13 06:12:00,
2013-10-13 00:21:00,37.0,33.0,-100.00,WNW,299,1.0,2.0,85,0.00,,,0.01,,2013-10-13 06:21:00,
2013-10-13 00:42:00,37.0,33.0,-100.00,WNW,299,0.0,1.0,85,0.00,,,0.01,,2013-10-13 06:42:00,
2013-10-13 00:52:00,37.0,33.0,-100.00,WNW,299,0.0,0.0,85,0.00,,,0.01,,2013-10-13 06:52:00,
2013-10-13 01:11:00,36.0,32.0,-100.00,WNW,299,0.0,0.0,86,0.00,,,0.01,,2013-10-13 07:11:00,
2013-10-13 01:21:00,36.0,33.0,-100.00,WNW,299,0.0,1.0,87,0.00,,,0.01,,2013-10-13 07:21:00,
2013-10-13 01:52:00,35.0,32.0,-100.00,WNW,299,0.0,2.0,89,0.00,,,0.01,,2013-10-13 07:52:00,
2013-10-13 02:22:00,35.0,32.0,-100.00,WNW,300,0.0,0.0,87,0.00,,,0.01,,2013-10-13 08:22:00,
2013-10-13 02:42:00,34.0,31.0,-100.00,WNW,301,0.0,1.0,88,0.00,,,0.01,,2013-10-13 08:42:00,
2013-10-13 02:52:00,34.0,31.0,-100.00,WNW,300,1.0,2.0,89,0.00,,,0.01,,2013-10-13 08:52:00,
2013-10-13 03:11:00,34.0,31.0,-100.00,WNW,301,0.0,2.0,90,0.00,,,0.01,,2013-10-13 09:11:00,
2013-10-13 03:22:00,34.0,31.0,-100.00,WNW,301,0.0,0.0,90,0.00,,,0.01,,2013-10-13 09:22:00,
2013-10-13 03:43:00,34.0,31.0,-100.00,WNW,301,0.0,0.0,90,0.00,,,0.01,,2013-10-13 09:43:00,
2013-10-13 03:53:00,34.0,32.0,-100.00,WNW,301,0.0,2.0,91,0.00,,,0.01,,2013-10-13 09:53:00,
2013-10-13 04:13:00,34.0,32.0,-100.00,WNW,300,0.0,2.0,91,0.00,,,0.01,,2013-10-13 10:13:00,
2013-10-13 04:23:00,34.0,32.0,-100.00,West,264,0.0,2.0,91,0.00,,,0.01,,2013-10-13 10:23:00,
2013-10-13 04:53:00,35.0,33.0,-100.00,West,264,1.0,3.0,91,0.00,,,0.01,,2013-10-13 10:53:00,
2013-10-13 05:12:00,35.0,33.0,-100.00,West,264,1.0,2.0,91,0.00,,,0.01,,2013-10-13 11:12:00,
2013-10-13 05:21:00,35.0,33.0,-100.00,West,264,0.0,1.0,91,0.01,,,0.02,,2013-10-13 11:21:00,
2013-10-13 05:52:00,35.0,33.0,-100.00,West,264,1.0,3.0,91,0.04,,,0.05,,2013-10-13 11:52:00,
2013-10-13 06:12:00,34.0,32.0,-100.00,ESE,108,0.0,3.0,91,0.06,,,0.07,,2013-10-13 12:12:00,
2013-10-13 06:21:00,34.0,32.0,-100.00,ENE,65,0.0,1.0,91,0.05,,,0.07,,2013-10-13 12:21:00,
2013-10-13 06:52:00,33.0,31.0,-100.00,NNW,340,0.0,0.0,92,0.02,,,0.07,,2013-10-13 12:52:00,
2013-10-13 07:12:00,33.0,31.0,-100.00,NNW,340,0.0,1.0,93,0.00,,,0.07,,2013-10-13 13:12:00,
2013-10-13 07:21:00,33.0,31.0,-100.00,NNW,340,0.0,0.0,93,0.01,,,0.08,,2013-10-13 13:21:00,
2013-10-13 07:42:00,33.0,31.0,-100.00,NNW,340,0.0,0.0,93,0.01,,,0.08,,2013-10-13 13:42:00,
2013-10-13 07:52:00,33.0,31.0,-100.00,NNW,340,0.0,0.0,93,0.02,,,0.09,,2013-10-13 13:52:00,
2013-10-13 08:11:00,34.0,32.0,-100.00,NNW,340,0.0,1.0,94,0.02,,,0.09,,2013-10-13 14:11:00,
2013-10-13 08:21:00,33.0,31.0,-100.00,NNW,340,0.0,1.0,93,0.01,,,0.09,,2013-10-13 14:21:00,
2013-10-13 08:41:00,34.0,32.0,-100.00,SSW,210,0.0,1.0,93,0.01,,,0.09,,2013-10-13 14:41:00,
2013-10-13 08:52:00,33.0,31.0,-100.00,SSW,210,0.0,0.0,93,0.00,,,0.09,,2013-10-13 14:52:00,
2013-10-13 09:12:00,33.0,31.0,-100.00,SSW,210,0.0,1.0,93,0.00,,,0.09,,2013-10-13 15:12:00,
2013-10-13 09:22:00,33.0,31.0,-100.00,SSW,210,0.0,3.0,93,0.00,,,0.09,,2013-10-13 15:22:00,
2013-10-13 09:43:00,33.0,31.0,-100.00,South,187,0.0,4.0,93,0.01,,,0.10,,2013-10-13 15:43:00,
2013-10-13 09:54:00,34.0,32.0,-100.00,South,187,0.0,1.0,94,0.02,,,0.11,,2013-10-13 15:54:00,
2013-10-13 10:12:00,34.0,32.0,-100.00,South,187,0.0,1.0,94,0.02,,,0.11,,2013-10-13 16:12:00,
2013-10-13 10:23:00,34.0,32.0,-100.00,South,187,0.0,0.0,94,0.03,,,0.12,,2013-10-13 16:23:00,
2013-10-13 10:42:00,34.0,32.0,-100.00,SSW,194,0.0,1.0,94,0.03,,,0.13,,2013-10-13 16:42:00,
2013-10-13 10:54:00,35.0,33.0,-100.00,WNW,303,0.0,1.0,94,0.04,,,0.15,,2013-10-13 16:54:00,
2013-10-13 11:22:00,38.0,36.0,-100.00,NE,48,1.0,3.0,93,0.06,,,0.18,,2013-10-13 17:22:00,
2013-10-13 11:52:00,40.0,37.0,-100.00,West,270,0.0,2.0,90,0.04,,,0.19,,2013-10-13 17:52:00,
2013-10-13 12:21:00,40.0,36.0,-100.00,West,270,1.0,3.0,87,0.01,,,0.19,,2013-10-13 18:21:00,
2013-10-13 12:42:00,40.0,36.0,-100.00,West,270,1.0,3.0,87,0.00,,,0.19,,2013-10-13 18:42:00,
2013-10-13 12:52:00,41.0,37.0,-100.00,NE,43,2.0,3.0,87,0.00,,,0.19,,2013-10-13 18:52:00,
2013-10-13 13:11:00,41.0,37.0,-100.00,ESE,113,1.0,4.0,86,0.00,,,0.19,,2013-10-13 19:11:00,
2013-10-13 13:21:00,42.0,38.0,-100.00,SSE,162,3.0,4.0,84,0.00,,,0.19,,2013-10-13 19:21:00,
2013-10-13 13:42:00,42.0,37.0,-100.00,East,86,1.0,5.0,82,0.00,,,0.19,,2013-10-13 19:42:00,
2013-10-13 13:52:00,42.0,37.0,-100.00,East,86,0.0,2.0,82,0.00,,,0.19,,2013-10-13 19:52:00,
2013-10-13 14:22:00,43.0,38.0,-100.00,WSW,250,0.0,2.0,83,0.00,,,0.19,,2013-10-13 20:22:00,
2013-10-13 14:43:00,43.0,39.0,-100.00,WSW,250,0.0,3.0,86,0.02,,,0.21,,2013-10-13 20:43:00,
2013-10-13 14:52:00,42.0,39.0,-100.00,WSW,250,0.0,3.0,88,0.06,,,0.25,,2013-10-13 20:52:00,
2013-10-13 15:11:00,42.0,39.0,-100.00,WSW,250,1.0,2.0,88,0.07,,,0.26,,2013-10-13 21:11:00,
2013-10-13 15:21:00,42.0,39.0,-100.00,WSW,250,1.0,2.0,89,0.07,,,0.26,,2013-10-13 21:21:00,
2013-10-13 15:44:00,41.0,38.0,-100.00,WSW,250,0.0,3.0,90,0.06,,,0.27,,2013-10-13 21:44:00,
2013-10-13 15:55:00,41.0,39.0,-100.00,WSW,250,0.0,3.0,91,0.02,,,0.27,,2013-10-13 21:55:00,
2013-10-13 16:24:00,42.0,39.0,-100.00,WSW,250,0.0,3.0,90,0.00,,,0.27,,2013-10-13 22:24:00,
2013-10-13 16:43:00,42.0,39.0,-100.00,WSW,250,0.0,0.0,90,0.00,,,0.27,,2013-10-13 22:43:00,
2013-10-13 16:53:00,42.0,39.0,-100.00,WSW,250,0.0,1.0,89,0.00,,,0.27,,2013-10-13 22:53:00,
2013-10-13 17:12:00,42.0,39.0,-100.00,WSW,250,1.0,4.0,90,0.00,,,0.27,,2013-10-13 23:12:00,
2013-10-13 17:21:00,42.0,40.0,-100.00,WSW,250,0.0,3.0,91,0.01,,,0.28,,2013-10-13 23:21:00,
2013-10-13 17:42:00,41.0,38.0,-100.00,SSW,200,0.0,3.0,89,0.03,,,0.30,,2013-10-13 23:42:00,
2013-10-13 17:52:00,40.0,37.0,-100.00,SSE,166,1.0,7.0,88,0.04,,,0.31,,2013-10-13 23:52:00,
2013-10-13 18:12:00,39.0,36.0,-100.00,SSW,199,0.0,4.0,89,0.06,,,0.33,,2013-10-14 00:12:00,
2013-10-13 18:21:00,39.0,36.0,-100.00,SW,214,0.0,3.0,90,0.07,,,0.35,,2013-10-14 00:21:00,
2013-10-13 18:42:00,38.0,35.0,-100.00,South,176,0.0,2.0,90,0.06,,,0.36,,2013-10-14 00:42:00,
2013-10-13 18:52:00,38.0,35.0,-100.00,South,176,0.0,1.0,90,0.06,,,0.37,,2013-10-14 00:52:00,
2013-10-13 19:11:00,38.0,36.0,-100.00,South,176,0.0,0.0,91,0.04,,,0.37,,2013-10-14 01:11:00,
2013-10-13 19:21:00,38.0,36.0,-100.00,South,176,0.0,0.0,92,0.04,,,0.39,,2013-10-14 01:21:00,
2013-10-13 19:42:00,37.0,35.0,-100.00,South,176,0.0,0.0,92,0.04,,,0.40,,2013-10-14 01:42:00,
2013-10-13 19:52:00,37.0,35.0,-100.00,South,176,0.0,0.0,92,0.04,,,0.41,,2013-10-14 01:52:00,
2013-10-13 20:11:00,37.0,35.0,-100.00,South,176,0.0,1.0,93,0.04,,,0.41,,2013-10-14 02:11:00,
2013-10-13 20:21:00,37.0,35.0,-100.00,South,176,0.0,1.0,93,0.03,,,0.41,,2013-10-14 02:21:00,
2013-10-13 20:42:00,37.0,35.0,-100.00,South,176,0.0,1.0,93,0.02,,,0.41,,2013-10-14 02:42:00,
2013-10-13 20:52:00,37.0,35.0,-100.00,South,176,0.0,0.0,93,0.01,,,0.41,,2013-10-14 02:52:00,
2013-10-13 21:12:00,37.0,35.0,-100.00,South,176,0.0,0.0,93,0.01,,,0.41,,2013-10-14 03:12:00,
2013-10-13 21:22:00,37.0,35.0,-100.00,South,176,0.0,0.0,93,0.00,,,0.41,,2013-10-14 03:22:00,
2013-10-13 21:44:00,36.0,34.0,-100.00,South,176,0.0,0.0,94,0.00,,,0.41,,2013-10-14 03:44:00,
2013-10-13 21:55:00,36.0,34.0,-100.00,South,176,0.0,0.0,94,0.00,,,0.41,,2013-10-14 03:55:00,
2013-10-13 22:14:00,36.0,34.0,-100.00,South,176,0.0,0.0,94,0.00,,,0.41,,2013-10-14 04:14:00,
2013-10-13 22:24:00,37.0,35.0,-100.00,South,176,0.0,0.0,94,0.00,,,0.41,,2013-10-14 04:24:00,
2013-10-13 22:43:00,37.0,35.0,-100.00,South,176,0.0,0.0,94,0.00,,,0.41,,2013-10-14 04:43:00,
2013-10-13 22:54:00,37.0,35.0,-100.00,South,176,0.0,1.0,94,0.00,,,0.41,,2013-10-14 04:54:00,
2013-10-13 23:22:00,37.0,35.0,-100.00,South,176,0.0,0.0,94,0.00,,,0.41,,2013-10-14 05:22:00,
2013-10-13 23:43:00,37.0,35.0,-100.00,South,176,0.0,0.0,94,0.00,,,0.41,,2013-10-14 05:43:00,
2013-10-13 23:52:00,37.0,35.0,-100.00,South,176,0.0,0.0,94,0.00,,,0.41,,2013-10-14 05:52:00,